Time;durP1;ratioP1;P1;durP2;ratioP2;P2;SDS_P1;SDS_P2;PMS_P1;PMS_P2;Temp;Humidity;BMP_temperature;BMP_pressure;BME280_temperature;BME280_humidity;BME280_pressure;Samples;Min_cycle;Max_cycle;Signal;HPM_P1;HPM_P2
2020/12/29 00:00:11;;;;;;;9.10;6.87;;;0.20;99.90;-1.10;93703.00;;;;6150650;23;20420;-68
2020/12/29 00:02:39;;;;;;;7.53;5.93;;;0.20;99.90;-1.20;93692.00;;;;6149485;23;20430;-67
2020/12/29 00:05:06;;;;;;;9.00;6.13;;;0.20;99.90;-1.20;93705.00;;;;6150271;23;20410;-68
2020/12/29 00:07:33;;;;;;;7.67;6.33;;;0.10;99.90;-1.20;93714.00;;;;6149866;23;20409;-68
2020/12/29 00:10:02;;;;;;;6.83;6.03;;;0.10;99.90;-1.20;93729.00;;;;6151290;23;20690;-68
2020/12/29 00:12:30;;;;;;;7.90;6.47;;;0.10;99.90;-1.20;93735.00;;;;6150344;23;20769;-69
2020/12/29 00:14:58;;;;;;;7.43;5.87;;;0.10;99.90;-1.20;93740.00;;;;6151134;23;20890;-67
2020/12/29 00:17:25;;;;;;;6.87;5.17;;;0.10;99.90;-1.30;93748.00;;;;6150126;23;20438;-68
2020/12/29 00:19:52;;;;;;;7.43;5.50;;;0.10;99.90;-1.30;93747.00;;;;6149734;23;20433;-68
2020/12/29 00:22:20;;;;;;;7.30;5.67;;;0.10;99.90;-1.40;93743.00;;;;6150302;23;20432;-68
2020/12/29 00:24:47;;;;;;;6.13;5.53;;;0.00;99.90;-1.40;93758.00;;;;6150372;23;20895;-69
2020/12/29 00:27:15;;;;;;;6.13;5.53;;;0.00;99.90;-1.50;93762.00;;;;6150159;23;20740;-67
2020/12/29 00:29:43;;;;;;;7.50;6.00;;;0.00;99.90;-1.60;93766.00;;;;6149941;23;20406;-68
2020/12/29 00:32:10;;;;;;;6.07;5.47;;;-0.10;99.90;-1.70;93765.00;;;;6149391;23;20430;-68
2020/12/29 00:34:38;;;;;;;7.37;5.83;;;-0.20;99.90;-1.80;93757.00;;;;6146618;23;20413;-67
2020/12/29 00:37:05;;;;;;;6.50;5.63;;;-0.20;99.90;-2.00;93762.00;;;;6146393;23;20432;-68
2020/12/29 00:39:33;;;;;;;6.17;4.77;;;-0.30;99.90;-2.00;93780.00;;;;6147244;23;20417;-68
2020/12/29 00:42:00;;;;;;;7.70;6.13;;;-0.40;99.90;-1.90;93782.00;;;;6145662;23;20437;-67
2020/12/29 00:44:28;;;;;;;7.27;6.33;;;-0.50;99.90;-1.90;93785.00;;;;6146783;23;20412;-68
2020/12/29 00:46:56;;;;;;;8.03;6.03;;;-0.50;99.90;-2.00;93789.00;;;;6146228;23;20665;-68
2020/12/29 00:49:23;;;;;;;6.53;5.07;;;-0.50;99.90;-2.10;93793.00;;;;6148112;23;20393;-68
2020/12/29 00:51:53;;;;;;;5.43;4.33;;;-0.50;99.90;-2.20;93796.00;;;;6149714;23;20965;-68
2020/12/29 00:54:21;;;;;;;5.23;4.73;;;-0.60;99.90;-2.40;93807.00;;;;6150432;23;20840;-68
2020/12/29 00:56:48;;;;;;;6.73;4.50;;;-0.70;99.90;-2.40;93813.00;;;;6149728;23;20516;-69
2020/12/29 00:59:16;;;;;;;6.53;5.47;;;-0.80;99.90;-2.30;93832.00;;;;6150372;23;20389;-68
2020/12/29 01:01:44;;;;;;;6.60;5.40;;;-0.80;99.90;-2.30;93828.00;;;;6150405;23;20426;-68
2020/12/29 01:04:11;;;;;;;5.30;4.73;;;-0.80;99.90;-2.30;93823.00;;;;6150963;23;20405;-68
2020/12/29 01:06:39;;;;;;;5.87;5.27;;;-0.90;99.90;-2.40;93839.00;;;;6150129;23;20880;-69
2020/12/29 01:09:06;;;;;;;5.17;4.67;;;-0.90;99.90;-2.40;93835.00;;;;6149792;23;20429;-68
2020/12/29 01:11:33;;;;;;;5.83;5.13;;;-0.80;99.90;-2.40;93846.00;;;;6150288;23;20473;-68
2020/12/29 01:14:01;;;;;;;5.07;4.57;;;-0.90;99.90;-2.40;93847.00;;;;6150080;23;20688;-68
2020/12/29 01:16:28;;;;;;;4.40;4.00;;;-0.90;99.90;-2.50;93866.00;;;;6150244;23;20410;-70
2020/12/29 01:18:56;;;;;;;4.77;3.57;;;-1.00;99.90;-2.50;93866.00;;;;6149698;23;20429;-69
2020/12/29 01:21:24;;;;;;;5.00;4.50;;;-1.00;99.90;-2.50;93866.00;;;;6150344;23;20429;-68
2020/12/29 01:23:51;;;;;;;5.23;4.33;;;-1.00;99.90;-2.50;93871.00;;;;6150067;23;20417;-69
2020/12/29 01:26:23;;;;;;;4.53;3.93;;;-1.00;99.90;-2.50;93873.00;;;;6149973;23;20757;-69
2020/12/29 01:28:50;;;;;;;6.13;5.33;;;-1.10;99.90;-2.50;93880.00;;;;6150243;23;20519;-69
2020/12/29 01:31:25;;;;;;;5.27;4.77;;;-1.10;99.90;-2.50;93871.00;;;;6150063;23;20429;-67
2020/12/29 01:33:54;;;;;;;6.53;4.43;;;-1.10;99.90;-2.50;93895.00;;;;6152577;23;20390;-68
2020/12/29 01:36:23;;;;;;;5.47;3.97;;;-1.10;99.90;-2.60;93910.00;;;;6152518;23;20425;-68
2020/12/29 01:38:51;;;;;;;5.00;3.90;;;-1.10;99.90;-2.70;93913.00;;;;6151644;23;20958;-68
2020/12/29 01:41:20;;;;;;;4.43;3.93;;;-1.20;99.90;-2.70;93905.00;;;;6151742;23;20938;-68
2020/12/29 01:43:47;;;;;;;3.93;3.53;;;-1.20;99.90;-2.80;93898.00;;;;6152278;23;20434;-68
2020/12/29 01:46:15;;;;;;;4.53;4.07;;;-1.20;99.90;-2.80;93906.00;;;;6152127;23;20400;-67
2020/12/29 01:48:43;;;;;;;3.57;3.27;;;-1.30;99.90;-2.80;93908.00;;;;6151880;23;20436;-68
2020/12/29 01:51:12;;;;;;;4.50;3.90;;;-1.30;99.90;-2.80;93919.00;;;;6151929;23;20504;-68
2020/12/29 01:53:41;;;;;;;4.20;3.60;;;-1.30;99.90;-2.70;93910.00;;;;6151993;23;20397;-68
2020/12/29 01:56:10;;;;;;;4.40;3.83;;;-1.40;99.90;-3.00;93934.00;;;;6152574;23;20409;-68
2020/12/29 01:58:41;;;;;;;7.80;4.97;;;-1.40;99.90;-3.10;93953.00;;;;6151787;23;20464;-68
2020/12/29 02:01:09;;;;;;;5.30;3.83;;;-1.50;99.90;-3.00;93945.00;;;;6153200;23;20444;-68
2020/12/29 02:03:37;;;;;;;5.20;4.60;;;-1.50;99.90;-3.00;93957.00;;;;6152469;23;20412;-68
2020/12/29 02:06:05;;;;;;;5.23;3.90;;;-1.60;99.90;-3.10;93938.00;;;;6152398;23;20729;-68
2020/12/29 02:08:33;;;;;;;4.47;4.07;;;-1.60;99.90;-3.10;93944.00;;;;6151683;23;20417;-68
2020/12/29 02:11:01;;;;;;;4.73;4.20;;;-1.60;99.90;-3.40;93943.00;;;;6152131;23;20456;-68
2020/12/29 02:13:29;;;;;;;4.03;3.63;;;-1.60;99.90;-3.50;93950.00;;;;6151936;23;20417;-68
2020/12/29 02:15:56;;;;;;;4.13;3.27;;;-1.80;99.90;-3.60;93940.00;;;;6151944;23;20598;-68
2020/12/29 02:18:24;;;;;;;4.60;3.60;;;-1.90;99.90;-3.70;93951.00;;;;6151036;23;20775;-68
2020/12/29 02:20:51;;;;;;;4.27;3.20;;;-2.00;99.90;-3.70;93954.00;;;;6151560;23;20762;-67
2020/12/29 02:23:20;;;;;;;3.67;3.37;;;-2.10;99.90;-3.70;93975.00;;;;6151670;23;20417;-67
2020/12/29 02:25:47;;;;;;;3.43;3.13;;;-2.10;99.90;-3.80;93981.00;;;;6151866;23;20405;-67
2020/12/29 02:28:15;;;;;;;3.77;3.47;;;-2.10;99.90;-3.80;93985.00;;;;6151747;23;20615;-70
2020/12/29 02:30:42;;;;;;;3.53;3.23;;;-2.10;99.90;-3.70;93983.00;;;;6151609;23;20476;-68
2020/12/29 02:33:10;;;;;;;4.73;4.17;;;-2.20;99.90;-3.70;93989.00;;;;6151196;23;20413;-68
2020/12/29 02:35:37;;;;;;;3.83;3.47;;;-2.20;99.90;-3.70;93991.00;;;;6151891;23;20436;-68
2020/12/29 02:38:05;;;;;;;3.60;3.30;;;-2.20;99.90;-3.60;93998.00;;;;6151071;23;20452;-68
2020/12/29 02:40:33;;;;;;;4.67;3.20;;;-2.90;99.90;-3.50;94000.00;;;;6152343;23;20409;-67
2020/12/29 02:43:01;;;;;;;4.47;4.07;;;-2.20;99.90;-3.70;94005.00;;;;6151022;23;20394;-69
2020/12/29 02:45:29;;;;;;;3.27;3.00;;;-2.20;99.90;-3.60;94004.00;;;;6151471;23;20977;-69
2020/12/29 02:47:56;;;;;;;4.27;3.63;;;-2.20;99.90;-3.90;94019.00;;;;6150809;23;20962;-68
2020/12/29 02:50:29;;;;;;;5.07;3.37;;;-2.20;99.90;-4.10;94022.00;;;;6151760;23;20427;-68
2020/12/29 02:52:57;;;;;;;4.63;3.73;;;-2.40;99.90;-4.00;94037.00;;;;6151500;23;20390;-68
2020/12/29 02:55:24;;;;;;;4.03;3.47;;;-2.40;99.90;-4.00;94034.00;;;;6151543;23;20888;-68
2020/12/29 02:57:53;;;;;;;3.67;3.33;;;-2.40;99.90;-3.90;94039.00;;;;6150570;23;20954;-68
2020/12/29 03:00:21;;;;;;;3.53;3.07;;;-2.40;99.90;-3.80;94040.00;;;;6151681;23;20413;-68
2020/12/29 03:02:48;;;;;;;4.73;3.23;;;-2.40;99.90;-3.70;94035.00;;;;6151109;23;20437;-68
2020/12/29 03:05:16;;;;;;;4.10;3.43;;;-2.30;99.90;-3.60;94026.00;;;;6151430;23;20409;-68
2020/12/29 03:07:43;;;;;;;3.87;3.20;;;-2.30;99.90;-3.50;94043.00;;;;6150784;23;20420;-69
2020/12/29 03:10:11;;;;;;;3.50;2.73;;;-2.20;99.90;-3.50;94042.00;;;;6151393;23;20907;-70
2020/12/29 03:12:39;;;;;;;3.27;2.83;;;-2.20;99.90;-3.40;94043.00;;;;6151121;23;20425;-68
2020/12/29 03:15:08;;;;;;;4.00;3.60;;;-2.00;99.90;-3.30;94053.00;;;;6151513;23;20409;-68
2020/12/29 03:17:36;;;;;;;2.80;2.60;;;-2.00;99.90;-3.40;94053.00;;;;6150680;23;20430;-68
2020/12/29 03:20:04;;;;;;;3.53;2.50;;;-2.00;99.90;-3.40;94055.00;;;;6151524;23;20432;-69
2020/12/29 03:22:32;;;;;;;2.80;2.47;;;-1.90;99.90;-3.30;94073.00;;;;6150867;23;20430;-69
2020/12/29 03:24:59;;;;;;;3.07;2.33;;;-1.90;99.90;-3.20;94076.00;;;;6151611;23;20405;-69
2020/12/29 03:27:27;;;;;;;4.20;3.10;;;-1.90;99.90;-3.10;94086.00;;;;6150574;23;20394;-69
2020/12/29 03:29:54;;;;;;;3.53;3.23;;;-1.80;99.90;-3.00;94109.00;;;;6151900;23;20406;-69
2020/12/29 03:32:22;;;;;;;2.60;2.30;;;-1.80;99.90;-3.20;94088.00;;;;6150714;23;20953;-69
2020/12/29 03:34:50;;;;;;;4.20;2.57;;;-1.70;99.90;-3.30;94104.00;;;;6151226;23;20405;-69
2020/12/29 03:37:17;;;;;;;3.47;2.83;;;-1.70;99.90;-3.40;94121.00;;;;6150712;23;20417;-69
2020/12/29 03:39:44;;;;;;;3.03;2.67;;;-1.80;99.90;-3.30;94118.00;;;;6150870;23;20393;-69
2020/12/29 03:42:12;;;;;;;2.23;2.13;;;-1.80;99.90;-3.30;94117.00;;;;6151321;23;20437;-69
2020/12/29 03:44:39;;;;;;;2.30;2.20;;;-1.90;99.90;-3.30;94132.00;;;;6151750;23;20386;-69
2020/12/29 03:47:07;;;;;;;2.40;2.20;;;-1.80;99.90;-3.40;94135.00;;;;6150434;23;20736;-69
2020/12/29 03:49:35;;;;;;;2.83;2.20;;;-1.90;99.90;-3.30;94155.00;;;;6151365;23;20468;-68
2020/12/29 03:52:03;;;;;;;2.50;2.30;;;-1.90;99.90;-3.50;94166.00;;;;6150727;23;20433;-69
2020/12/29 03:54:30;;;;;;;3.13;2.10;;;-1.90;99.90;-3.40;94179.00;;;;6151083;23;20414;-68
2020/12/29 03:56:57;;;;;;;2.87;2.53;;;-2.00;99.90;-3.70;94173.00;;;;6150028;23;20406;-68
2020/12/29 03:59:25;;;;;;;2.67;2.43;;;-2.10;99.90;-3.60;94181.00;;;;6151603;23;20438;-69
2020/12/29 04:01:52;;;;;;;2.33;2.00;;;-1.30;99.90;-3.90;94177.00;;;;6150737;23;20433;-69
2020/12/29 04:04:20;;;;;;;2.80;2.60;;;-2.20;99.90;-3.80;94196.00;;;;6151900;23;20413;-68
2020/12/29 04:06:48;;;;;;;2.40;2.20;;;-2.30;99.90;-3.80;94185.00;;;;6150272;23;20417;-68
2020/12/29 04:09:15;;;;;;;3.73;2.57;;;-2.30;99.90;-3.80;94184.00;;;;6150548;23;20425;-68
2020/12/29 04:11:43;;;;;;;40.67;26.57;;;-2.30;99.90;-3.80;94176.00;;;;6150588;23;20508;-68
2020/12/29 04:14:10;;;;;;;4.47;3.07;;;-2.30;99.90;-4.00;94186.00;;;;6151181;23;20413;-68
2020/12/29 04:16:38;;;;;;;2.63;2.20;;;-2.40;99.90;-3.90;94204.00;;;;6150573;23;20416;-69
2020/12/29 04:19:05;;;;;;;2.67;2.47;;;-2.30;99.90;-3.80;94204.00;;;;6150500;23;20907;-69
2020/12/29 04:21:32;;;;;;;2.77;2.30;;;-2.40;99.90;-3.80;94220.00;;;;6150348;23;20433;-68
2020/12/29 04:24:01;;;;;;;2.53;2.33;;;-2.40;99.90;-3.80;94213.00;;;;6151042;23;20394;-68
2020/12/29 04:26:28;;;;;;;3.57;2.53;;;-2.40;99.90;-3.70;94208.00;;;;6150908;23;20393;-68
2020/12/29 04:28:55;;;;;;;3.50;3.20;;;-2.30;99.90;-3.70;94222.00;;;;6150069;23;20413;-68
2020/12/29 04:31:24;;;;;;;2.20;2.10;;;-2.30;99.90;-3.60;94228.00;;;;6150742;23;20784;-69
2020/12/29 04:33:51;;;;;;;2.30;2.10;;;-2.30;99.90;-3.50;94231.00;;;;6150562;23;20409;-68
2020/12/29 04:36:19;;;;;;;2.67;2.47;;;-2.20;99.90;-3.40;94228.00;;;;6150760;23;21025;-68
2020/12/29 04:38:46;;;;;;;3.10;2.63;;;-2.20;99.90;-3.40;94242.00;;;;6150031;23;20458;-68
2020/12/29 04:41:15;;;;;;;2.30;2.10;;;-2.00;99.90;-3.60;94256.00;;;;6150515;23;20430;-68
2020/12/29 04:43:43;;;;;;;2.27;2.17;;;-2.10;99.90;-3.50;94264.00;;;;6148485;23;20432;-69
2020/12/29 04:46:11;;;;;;;2.07;1.93;;;-2.10;99.90;-3.50;94276.00;;;;6150427;23;20417;-68
2020/12/29 04:48:38;;;;;;;3.23;2.77;;;-2.10;99.90;-3.40;94282.00;;;;6150186;23;20448;-69
2020/12/29 04:51:08;;;;;;;5.33;3.37;;;-2.00;99.90;-3.30;94290.00;;;;6151013;23;20432;-69
2020/12/29 04:53:36;;;;;;;3.07;2.20;;;-2.00;99.90;-3.40;94292.00;;;;6150289;23;20894;-69
2020/12/29 04:56:07;;;;;;;2.33;2.13;;;-2.00;99.90;-3.50;94299.00;;;;6150754;23;20759;-68
2020/12/29 04:58:37;;;;;;;2.17;1.83;;;-2.00;99.90;-3.40;94302.00;;;;6149687;23;20430;-69
2020/12/29 05:01:08;;;;;;;2.27;2.07;;;-2.00;99.90;-3.40;94306.00;;;;6150775;23;20444;-68
2020/12/29 05:03:43;;;;;;;2.27;2.07;;;-2.00;99.90;-3.30;94304.00;;;;6149997;23;20390;-68
2020/12/29 05:06:12;;;;;;;2.93;2.63;;;-2.00;99.90;-3.20;94317.00;;;;6150374;23;20423;-70
2020/12/29 05:08:45;;;;;;;1.87;1.73;;;-1.90;99.90;-3.40;94316.00;;;;6149102;23;20399;-68
2020/12/29 05:11:13;;;;;;;2.30;1.90;;;-1.90;99.90;-3.50;94325.00;;;;6150182;23;20997;-68
2020/12/29 05:13:43;;;;;;;2.70;1.90;;;-1.90;99.90;-3.40;94328.00;;;;6149785;23;20398;-70
2020/12/29 05:16:10;;;;;;;2.37;2.17;;;-2.00;99.90;-3.40;94321.00;;;;6149845;23;20922;-68
2020/12/29 05:18:38;;;;;;;2.43;2.00;;;-2.00;99.90;-3.30;94325.00;;;;6147373;23;20434;-69
2020/12/29 05:21:06;;;;;;;2.40;2.20;;;-2.00;99.90;-3.30;94336.00;;;;6148441;23;20939;-69
2020/12/29 05:23:36;;;;;;;3.57;3.07;;;-1.90;99.90;-3.30;94336.00;;;;6149676;23;20941;-69
2020/12/29 05:26:04;;;;;;;3.00;2.47;;;-1.90;99.90;-3.30;94343.00;;;;6149812;23;20417;-68
2020/12/29 05:28:32;;;;;;;2.57;2.37;;;-2.80;99.90;-3.40;94355.00;;;;6149390;23;20409;-68
2020/12/29 05:31:03;;;;;;;4.07;2.40;;;-1.90;99.90;-3.40;94350.00;;;;6149568;23;20428;-69
2020/12/29 05:33:30;;;;;;;3.20;2.23;;;-1.90;99.90;-3.50;94354.00;;;;6149244;23;20405;-68
2020/12/29 05:36:00;;;;;;;2.33;2.13;;;-2.00;99.90;-3.50;94361.00;;;;6149624;23;20410;-68
2020/12/29 05:38:28;;;;;;;3.23;2.93;;;-2.00;99.90;-3.50;94362.00;;;;6148982;23;20786;-68
2020/12/29 05:40:56;;;;;;;3.50;2.40;;;-2.00;99.90;-3.50;94382.00;;;;6150165;23;20430;-68
2020/12/29 05:43:31;;;;;;;2.53;1.90;;;-2.00;99.90;-3.70;94377.00;;;;6149641;23;20393;-68
2020/12/29 05:46:01;;;;;;;3.90;1.67;;;-2.10;99.90;-3.70;94399.00;;;;6149955;23;20432;-68
2020/12/29 05:48:28;;;;;;;2.40;2.07;;;-2.20;99.90;-3.60;94418.00;;;;6148795;23;20405;-68
2020/12/29 05:50:56;;;;;;;2.00;1.90;;;-2.20;99.90;-3.70;94409.00;;;;6149821;23;20429;-68
2020/12/29 05:53:24;;;;;;;2.57;2.20;;;-2.20;99.90;-3.80;94424.00;;;;6149378;23;20409;-69
2020/12/29 05:55:53;;;;;;;2.43;2.23;;;-2.20;99.90;-3.70;94428.00;;;;6149992;23;20405;-69
2020/12/29 05:58:23;;;;;;;2.87;2.40;;;-2.20;99.90;-3.90;94434.00;;;;6148945;23;20455;-69
2020/12/29 06:00:50;;;;;;;3.07;2.23;;;-2.30;99.90;-3.80;94445.00;;;;6149373;23;20456;-69
2020/12/29 06:03:20;;;;;;;2.60;2.40;;;-2.30;99.90;-3.80;94443.00;;;;6149806;23;20441;-71
2020/12/29 06:05:49;;;;;;;3.00;2.67;;;-2.30;99.90;-3.60;94458.00;;;;6149704;23;20729;-69
2020/12/29 06:08:18;;;;;;;3.80;2.93;;;-2.30;99.90;-3.50;94445.00;;;;6149153;23;20394;-69
2020/12/29 06:10:59;;;;;;;4.30;3.20;;;-2.20;99.90;-3.40;94471.00;;;;6149378;23;20856;-70
2020/12/29 06:13:28;;;;;;;3.57;2.90;;;-2.20;99.90;-3.30;94473.00;;;;6149343;23;20393;-68
2020/12/29 06:15:58;;;;;;;4.27;2.80;;;-2.10;99.90;-3.40;94465.00;;;;6149379;23;20405;-69
2020/12/29 06:18:35;;;;;;;3.30;2.63;;;-2.00;99.90;-3.60;94464.00;;;;6149773;23;20449;-69
2020/12/29 06:21:05;;;;;;;2.90;2.37;;;-2.10;99.90;-3.60;94475.00;;;;6150981;23;20938;-69
2020/12/29 06:23:43;;;;;;;3.07;2.67;;;-2.10;99.90;-3.60;94487.00;;;;6151301;23;20393;-69
2020/12/29 06:26:11;;;;;;;3.20;2.90;;;-2.10;99.90;-3.60;94485.00;;;;6150811;23;20408;-69
2020/12/29 06:28:47;;;;;;;9.63;3.57;;;-2.10;99.90;-3.50;94497.00;;;;6150538;23;20756;-69
2020/12/29 06:31:22;;;;;;;2.97;2.37;;;-2.10;99.90;-3.80;94500.00;;;;6151565;23;20429;-69
2020/12/29 06:33:55;;;;;;;2.70;2.50;;;-2.20;99.90;-4.00;94515.00;;;;6151320;23;20402;-69
2020/12/29 06:36:28;;;;;;;3.27;2.97;;;-2.30;99.90;-3.90;94517.00;;;;6151257;23;20396;-69
2020/12/29 06:39:03;;;;;;;3.17;2.87;;;-2.30;99.90;-4.10;94523.00;;;;6150256;23;20429;-69
2020/12/29 06:41:33;;;;;;;2.87;2.60;;;-2.40;99.90;-4.00;94521.00;;;;6150859;23;20429;-69
2020/12/29 06:44:02;;;;;;;3.03;2.73;;;-2.50;99.90;-3.90;94528.00;;;;6150786;23;20405;-68
2020/12/29 06:46:30;;;;;;;4.90;3.13;;;-2.40;99.90;-3.80;94538.00;;;;6151121;23;20397;-70
2020/12/29 06:49:18;;;;;;;4.63;3.53;;;-2.40;99.90;-3.70;94540.00;;;;6150075;23;20903;-68
2020/12/29 06:51:46;;;;;;;3.50;2.93;;;-2.10;99.90;-3.80;94555.00;;;;6151159;23;20430;-69
2020/12/29 06:54:21;;;;;;;2.67;2.47;;;-2.30;99.90;-3.90;94552.00;;;;6151311;23;20417;-69
2020/12/29 06:56:59;;;;;;;3.77;2.97;;;-2.30;99.90;-3.80;94559.00;;;;6151225;23;20405;-68
2020/12/29 06:59:38;;;;;;;4.57;3.70;;;-2.30;99.90;-3.70;94558.00;;;;6150333;23;20429;-68
2020/12/29 07:02:20;;;;;;;4.37;3.57;;;-2.30;99.90;-3.70;94569.00;;;;6150671;23;20453;-69
2020/12/29 07:04:55;;;;;;;3.53;3.07;;;-2.30;99.90;-3.60;94578.00;;;;6151507;23;20971;-69
2020/12/29 07:07:32;;;;;;;3.77;3.03;;;-2.30;99.90;-3.50;94589.00;;;;6150663;23;20405;-68
2020/12/29 07:10:10;;;;;;;3.33;2.10;;;-2.20;99.90;-3.50;94606.00;;;;6150244;23;20850;-69
2020/12/29 07:12:42;;;;;;;3.37;2.77;;;-2.10;99.90;-3.80;94588.00;;;;6150384;23;20430;-69
2020/12/29 07:15:11;;;;;;;3.20;2.90;;;-2.20;99.90;-3.90;94604.00;;;;6151363;23;20401;-68
2020/12/29 07:17:38;;;;;;;3.07;2.67;;;-2.30;99.90;-4.20;94612.00;;;;6150166;23;20902;-69
2020/12/29 07:20:16;;;;;;;3.03;2.33;;;-2.40;99.90;-4.20;94610.00;;;;6150704;23;20437;-69
2020/12/29 07:22:53;;;;;;;3.03;2.33;;;-2.50;99.90;-4.30;94609.00;;;;6150349;23;20436;-69
2020/12/29 07:25:23;;;;;;;3.23;2.67;;;-2.60;99.90;-4.20;94616.00;;;;6151263;23;20394;-68
2020/12/29 07:27:54;;;;;;;3.17;2.57;;;-2.40;99.90;-4.30;94631.00;;;;6150937;23;20413;-69
2020/12/29 07:30:21;;;;;;;3.93;2.70;;;-2.30;99.90;-4.30;94634.00;;;;6150859;23;20393;-68
2020/12/29 07:32:50;;;;;;;2.97;2.70;;;-2.80;99.90;-4.30;94642.00;;;;6150211;23;20433;-69
2020/12/29 07:35:19;;;;;;;2.27;2.07;;;-2.80;99.90;-4.20;94657.00;;;;6150664;23;20409;-68
2020/12/29 07:37:50;;;;;;;2.77;2.10;;;-2.70;99.90;-4.20;94643.00;;;;6150461;23;20401;-69
2020/12/29 07:40:18;;;;;;;2.83;2.43;;;-2.70;99.90;-4.30;94647.00;;;;6150554;23;20430;-68
2020/12/29 07:42:45;;;;;;;3.53;2.40;;;-2.80;99.90;-4.00;94637.00;;;;6149988;23;20440;-69
2020/12/29 07:45:13;;;;;;;3.67;2.80;;;-2.60;99.90;-4.00;94652.00;;;;6150371;23;20405;-70
2020/12/29 07:47:40;;;;;;;2.10;1.90;;;-2.60;99.90;-4.20;94648.00;;;;6150770;23;20406;-68
2020/12/29 07:50:08;;;;;;;2.57;2.20;;;-2.60;99.90;-4.20;94653.00;;;;6150911;23;20404;-70
2020/12/29 07:52:36;;;;;;;2.47;2.27;;;-2.60;99.90;-4.40;94649.00;;;;6150845;23;20822;-68
2020/12/29 07:55:10;;;;;;;3.50;2.20;;;-2.70;99.90;-4.80;94643.00;;;;6150914;23;20917;-68
2020/12/29 07:57:38;;;;;;;2.57;2.03;;;-2.90;99.90;-4.70;94649.00;;;;6149617;23;20856;-68
2020/12/29 08:00:07;;;;;;;2.60;2.33;;;-3.00;99.90;-4.40;94652.00;;;;6149934;23;20754;-69
2020/12/29 08:02:35;;;;;;;3.43;3.13;;;-3.00;99.90;-4.40;94652.00;;;;6150455;23;20421;-69
2020/12/29 08:05:03;;;;;;;2.93;2.50;;;-3.00;99.90;-4.30;94646.00;;;;6151370;23;20409;-69
2020/12/29 08:07:30;;;;;;;6.17;2.80;;;-2.90;99.90;-4.20;94655.00;;;;6150409;23;20417;-69
2020/12/29 08:10:08;;;;;;;3.70;2.60;;;-2.80;99.90;-4.00;94669.00;;;;6150194;23;20428;-69
2020/12/29 08:12:35;;;;;;;5.27;3.03;;;-2.70;99.90;-3.70;94653.00;;;;6150051;23;20426;-69
2020/12/29 08:15:03;;;;;;;3.97;3.07;;;-2.60;99.90;-3.60;94675.00;;;;6150912;23;20405;-71
2020/12/29 08:17:31;;;;;;;3.03;2.77;;;-2.40;99.90;-3.90;94671.00;;;;6150142;23;20452;-69
2020/12/29 08:20:00;;;;;;;2.90;2.30;;;-2.40;99.90;-4.00;94688.00;;;;6148559;23;20954;-69
2020/12/29 08:22:30;;;;;;;2.47;2.27;;;-2.40;99.90;-4.00;94666.00;;;;6149357;23;20978;-68
2020/12/29 08:24:59;;;;;;;3.43;2.70;;;-2.50;99.90;-4.00;94673.00;;;;6149817;23;20505;-68
2020/12/29 08:27:28;;;;;;;3.10;2.77;;;-2.50;99.90;-3.80;94669.00;;;;6149874;23;20390;-69
2020/12/29 08:29:55;;;;;;;2.90;2.60;;;-2.50;99.90;-3.90;94678.00;;;;6149642;23;20871;-69
2020/12/29 08:32:24;;;;;;;4.43;2.43;;;-2.40;99.90;-3.80;94674.00;;;;6149910;23;20923;-69
2020/12/29 08:34:52;;;;;;;4.70;3.20;;;-2.40;99.90;-3.80;94678.00;;;;6150019;23;20413;-69
2020/12/29 08:37:24;;;;;;;3.20;2.90;;;-2.40;99.90;-3.70;94678.00;;;;6149868;23;20417;-70
2020/12/29 08:40:04;;;;;;;5.97;4.33;;;-2.30;99.90;-3.40;94696.00;;;;6149942;23;20460;-69
2020/12/29 08:42:35;;;;;;;3.63;2.77;;;-2.20;99.90;-3.60;94690.00;;;;6150058;23;20432;-69
2020/12/29 08:45:08;;;;;;;4.10;3.70;;;-2.10;99.90;-3.70;94689.00;;;;6150333;23;20416;-69
2020/12/29 08:47:36;;;;;;;3.53;2.57;;;-2.20;99.90;-3.80;94699.00;;;;6149699;23;20390;-68
2020/12/29 08:50:28;;;;;;;3.90;3.03;;;-2.20;99.90;-3.70;94699.00;;;;6150036;23;20449;-68
2020/12/29 08:53:05;;;;;;;2.83;2.63;;;-2.20;99.90;-3.40;94715.00;;;;6149734;23;20394;-69
2020/12/29 08:55:36;;;;;;;6.20;3.87;;;-2.20;99.90;-3.70;94726.00;;;;6150213;23;20401;-69
2020/12/29 08:58:05;;;;;;;6.97;4.27;;;-2.10;99.90;-3.40;94705.00;;;;6148200;23;20454;-70
2020/12/29 09:00:32;;;;;;;4.97;4.10;;;-2.10;99.90;-3.30;94723.00;;;;6149511;23;20543;-68
2020/12/29 09:03:19;;;;;;;8.43;5.57;;;-2.00;99.90;-3.10;94728.00;;;;6149554;23;20524;-68
2020/12/29 09:05:46;;;;;;;5.80;4.43;;;-1.90;99.90;-3.00;94722.00;;;;6149901;23;20416;-69
2020/12/29 09:08:13;;;;;;;7.57;5.47;;;-1.80;99.90;-3.20;94721.00;;;;6147903;23;20413;-68
2020/12/29 09:10:41;;;;;;;5.93;4.03;;;-1.70;99.90;-2.80;94716.00;;;;6146721;23;20425;-69
2020/12/29 09:13:11;;;;;;;6.13;4.47;;;-1.60;99.90;-2.70;94721.00;;;;6149573;23;20429;-70
2020/12/29 09:15:38;;;;;;;4.97;4.40;;;-1.50;99.90;-2.40;94718.00;;;;6149351;23;20425;-69
2020/12/29 09:18:07;;;;;;;7.17;4.53;;;-1.40;99.90;-2.20;94726.00;;;;6149119;23;20416;-69
2020/12/29 09:20:34;;;;;;;5.90;4.37;;;-1.20;99.90;-2.30;94736.00;;;;6149804;23;20503;-68
2020/12/29 09:23:04;;;;;;;6.27;4.80;;;-1.10;99.90;-1.80;94758.00;;;;6149232;23;20406;-69
2020/12/29 09:25:34;;;;;;;4.40;4.00;;;-0.90;99.90;-1.40;94761.00;;;;6148620;23;20436;-70
2020/12/29 09:28:19;;;;;;;5.40;3.93;;;-0.70;99.90;-1.50;94767.00;;;;6145786;23;20393;-70
2020/12/29 09:30:57;;;;;;;5.87;4.07;;;-0.50;99.90;-1.30;94764.00;;;;6146476;23;20390;-70
2020/12/29 09:33:27;;;;;;;6.33;4.50;;;-0.40;99.90;-1.30;94783.00;;;;6149120;23;20416;-69
2020/12/29 09:35:58;;;;;;;8.00;5.07;;;-0.30;99.90;-1.30;94795.00;;;;6150193;23;20827;-69
2020/12/29 09:38:26;;;;;;;4.73;4.07;;;-0.20;99.90;-1.60;94787.00;;;;6149045;23;20394;-69
2020/12/29 09:40:59;;;;;;;5.23;4.17;;;-0.20;99.90;-1.60;94778.00;;;;6150202;23;20803;-69
2020/12/29 09:43:27;;;;;;;3.50;3.20;;;-0.20;99.90;-1.60;94776.00;;;;6150187;23;20440;-68
2020/12/29 09:45:57;;;;;;;5.13;4.37;;;-0.20;99.90;-1.60;94768.00;;;;6149895;23;20414;-69
2020/12/29 09:48:25;;;;;;;4.57;4.17;;;-0.20;99.90;-1.50;94767.00;;;;6149503;23;20426;-68
2020/12/29 09:50:53;;;;;;;6.50;5.43;;;-0.20;99.90;-1.80;94761.00;;;;6150125;23;20456;-69
2020/12/29 09:53:20;;;;;;;9.63;8.53;;;-0.30;99.90;-1.70;94776.00;;;;6151904;23;20416;-69
2020/12/29 09:55:48;;;;;;;6.80;6.20;;;-0.30;99.90;-1.80;94778.00;;;;6151091;23;20412;-69
2020/12/29 09:58:15;;;;;;;5.17;4.47;;;-0.40;99.90;-1.60;94787.00;;;;6150531;23;20401;-69
2020/12/29 10:00:44;;;;;;;7.10;4.83;;;-0.30;99.90;-1.10;94780.00;;;;6150428;23;20433;-69
2020/12/29 10:03:11;;;;;;;5.70;5.10;;;-0.20;99.90;-1.00;94785.00;;;;6151047;23;20409;-68
2020/12/29 10:05:38;;;;;;;12.60;11.37;;;-0.10;99.90;-0.80;94766.00;;;;6150898;23;20405;-70
2020/12/29 10:08:06;;;;;;;8.77;6.83;;;0.20;99.90;-0.70;94768.00;;;;6151140;23;20405;-69
2020/12/29 10:10:34;;;;;;;9.00;7.23;;;0.30;99.90;-0.40;94773.00;;;;6151872;23;20429;-68
2020/12/29 10:13:01;;;;;;;8.20;6.77;;;0.40;99.90;-0.50;94775.00;;;;6151555;23;20409;-68
2020/12/29 10:15:29;;;;;;;8.80;6.20;;;0.60;99.90;-0.80;94766.00;;;;6151926;23;20436;-69
2020/12/29 10:17:58;;;;;;;7.73;5.40;;;0.60;99.90;-0.50;94777.00;;;;6151360;23;20424;-69
2020/12/29 10:20:25;;;;;;;11.63;5.40;;;0.70;99.90;-0.80;94773.00;;;;6151965;23;20429;-69
2020/12/29 10:22:52;;;;;;;155.87;58.70;;;0.60;99.90;-0.60;94770.00;;;;6151560;23;20433;-68
2020/12/29 10:25:20;;;;;;;28.77;16.97;;;0.70;99.90;0.10;94786.00;;;;6152215;23;20412;-68
2020/12/29 10:27:48;;;;;;;10.23;9.23;;;0.90;99.90;0.00;94771.00;;;;6150972;23;20405;-68
2020/12/29 10:30:15;;;;;;;5.20;4.63;;;1.20;99.90;-0.10;94762.00;;;;6151618;23;20420;-70
2020/12/29 10:32:44;;;;;;;15.83;9.17;;;1.20;99.90;0.30;94752.00;;;;6151563;23;20430;-69
2020/12/29 10:35:12;;;;;;;26.87;13.87;;;1.40;99.90;0.80;94781.00;;;;6151634;23;20429;-68
2020/12/29 10:37:40;;;;;;;22.13;13.70;;;1.70;99.90;0.80;94761.00;;;;6150955;23;20397;-68
2020/12/29 10:40:07;;;;;;;11.10;9.23;;;1.90;99.90;0.70;94769.00;;;;6151485;23;20448;-68
2020/12/29 10:42:35;;;;;;;9.00;7.33;;;2.00;99.90;0.70;94781.00;;;;6151541;23;20429;-68
2020/12/29 10:45:03;;;;;;;6.33;4.87;;;2.00;99.90;0.00;94806.00;;;;6152185;23;20401;-68
2020/12/29 10:47:31;;;;;;;8.80;6.97;;;1.90;99.90;-0.50;94809.00;;;;6150799;23;20903;-68
2020/12/29 10:49:58;;;;;;;9.03;5.53;;;1.50;99.90;-0.50;94786.00;;;;6151690;23;20408;-68
2020/12/29 10:52:26;;;;;;;6.27;5.70;;;1.20;99.90;-0.10;94805.00;;;;6151076;23;20425;-69
2020/12/29 10:54:54;;;;;;;13.83;9.80;;;1.20;99.90;0.30;94807.00;;;;6151301;23;20401;-69
2020/12/29 10:57:21;;;;;;;10.23;8.47;;;1.40;99.90;0.90;94815.00;;;;6150584;23;20489;-69
2020/12/29 10:59:49;;;;;;;10.70;8.03;;;1.50;99.90;0.80;94824.00;;;;6149933;23;20453;-69
2020/12/29 11:02:16;;;;;;;10.17;7.47;;;1.70;99.90;0.70;94830.00;;;;6149279;23;20436;-69